sensor_id;sensor_type;location;lat;lon;timestamp;P1;durP1;ratioP1;P2;durP2;ratioP2
6193;SDS011;3130;41.564;23.280;2023-11-21T00:00:10;2.80;;;2.50;;
6193;SDS011;3130;41.564;23.280;2023-11-21T00:02:39;2.80;;;2.30;;
6193;SDS011;3130;41.564;23.280;2023-11-21T00:05:07;5.70;;;2.57;;
6193;SDS011;3130;41.564;23.280;2023-11-21T00:07:35;4.60;;;2.83;;
6193;SDS011;3130;41.564;23.280;2023-11-21T00:10:02;4.23;;;3.10;;
6193;SDS011;3130;41.564;23.280;2023-11-21T00:12:30;4.57;;;2.30;;
6193;SDS011;3130;41.564;23.280;2023-11-21T00:14:58;3.90;;;2.70;;
6193;SDS011;3130;41.564;23.280;2023-11-21T00:17:26;4.43;;;2.17;;
6193;SDS011;3130;41.564;23.280;2023-11-21T00:19:55;3.17;;;2.67;;
6193;SDS011;3130;41.564;23.280;2023-11-21T00:22:22;2.97;;;1.93;;
6193;SDS011;3130;41.564;23.280;2023-11-21T00:24:49;2.67;;;2.20;;
6193;SDS011;3130;41.564;23.280;2023-11-21T00:27:16;4.07;;;2.63;;
6193;SDS011;3130;41.564;23.280;2023-11-21T00:29:43;3.30;;;2.63;;
6193;SDS011;3130;41.564;23.280;2023-11-21T00:32:10;3.43;;;2.93;;
6193;SDS011;3130;41.564;23.280;2023-11-21T00:34:37;3.60;;;2.67;;
6193;SDS011;3130;41.564;23.280;2023-11-21T00:37:06;3.47;;;2.50;;
6193;SDS011;3130;41.564;23.280;2023-11-21T00:39:34;2.90;;;2.37;;
6193;SDS011;3130;41.564;23.280;2023-11-21T00:42:01;4.93;;;2.67;;
6193;SDS011;3130;41.564;23.280;2023-11-21T00:44:30;4.60;;;2.73;;
6193;SDS011;3130;41.564;23.280;2023-11-21T00:46:57;4.33;;;2.73;;
6193;SDS011;3130;41.564;23.280;2023-11-21T00:49:24;4.63;;;2.60;;
6193;SDS011;3130;41.564;23.280;2023-11-21T00:51:51;3.03;;;2.40;;
6193;SDS011;3130;41.564;23.280;2023-11-21T00:54:20;3.43;;;3.13;;
6193;SDS011;3130;41.564;23.280;2023-11-21T00:56:47;3.87;;;2.80;;
6193;SDS011;3130;41.564;23.280;2023-11-21T00:59:14;7.00;;;2.87;;
6193;SDS011;3130;41.564;23.280;2023-11-21T01:01:41;4.10;;;2.50;;
6193;SDS011;3130;41.564;23.280;2023-11-21T01:04:09;6.87;;;3.33;;
6193;SDS011;3130;41.564;23.280;2023-11-21T01:06:36;7.87;;;4.80;;
6193;SDS011;3130;41.564;23.280;2023-11-21T01:09:04;10.43;;;6.93;;
6193;SDS011;3130;41.564;23.280;2023-11-21T01:11:35;13.43;;;7.17;;
6193;SDS011;3130;41.564;23.280;2023-11-21T01:14:03;13.27;;;8.03;;
6193;SDS011;3130;41.564;23.280;2023-11-21T01:16:31;9.00;;;5.23;;
6193;SDS011;3130;41.564;23.280;2023-11-21T01:18:59;8.40;;;6.07;;
6193;SDS011;3130;41.564;23.280;2023-11-21T01:21:26;9.47;;;6.97;;
6193;SDS011;3130;41.564;23.280;2023-11-21T01:23:54;7.37;;;4.83;;
6193;SDS011;3130;41.564;23.280;2023-11-21T01:26:21;7.60;;;4.83;;
6193;SDS011;3130;41.564;23.280;2023-11-21T01:28:50;7.37;;;4.00;;
6193;SDS011;3130;41.564;23.280;2023-11-21T01:31:17;7.07;;;3.47;;
6193;SDS011;3130;41.564;23.280;2023-11-21T01:33:45;4.57;;;3.10;;
6193;SDS011;3130;41.564;23.280;2023-11-21T01:36:13;5.33;;;3.07;;
6193;SDS011;3130;41.564;23.280;2023-11-21T01:38:40;4.43;;;2.87;;
6193;SDS011;3130;41.564;23.280;2023-11-21T01:41:07;4.27;;;3.37;;
6193;SDS011;3130;41.564;23.280;2023-11-21T01:43:36;4.07;;;3.33;;
6193;SDS011;3130;41.564;23.280;2023-11-21T01:46:05;3.80;;;3.10;;
6193;SDS011;3130;41.564;23.280;2023-11-21T01:48:32;4.37;;;2.90;;
6193;SDS011;3130;41.564;23.280;2023-11-21T01:51:00;3.10;;;2.80;;
6193;SDS011;3130;41.564;23.280;2023-11-21T01:53:28;5.10;;;3.27;;
6193;SDS011;3130;41.564;23.280;2023-11-21T01:55:55;3.90;;;2.83;;
6193;SDS011;3130;41.564;23.280;2023-11-21T01:58:23;4.80;;;3.27;;
6193;SDS011;3130;41.564;23.280;2023-11-21T02:00:50;3.20;;;2.90;;
6193;SDS011;3130;41.564;23.280;2023-11-21T02:03:21;4.97;;;3.97;;
6193;SDS011;3130;41.564;23.280;2023-11-21T02:05:48;3.30;;;2.37;;
6193;SDS011;3130;41.564;23.280;2023-11-21T02:08:15;5.50;;;2.73;;
6193;SDS011;3130;41.564;23.280;2023-11-21T02:10:44;3.80;;;3.33;;
6193;SDS011;3130;41.564;23.280;2023-11-21T02:13:13;4.27;;;2.50;;
6193;SDS011;3130;41.564;23.280;2023-11-21T02:15:41;3.03;;;2.60;;
6193;SDS011;3130;41.564;23.280;2023-11-21T02:18:09;3.33;;;2.80;;
6193;SDS011;3130;41.564;23.280;2023-11-21T02:20:37;2.73;;;2.50;;
6193;SDS011;3130;41.564;23.280;2023-11-21T02:23:08;3.03;;;2.73;;
6193;SDS011;3130;41.564;23.280;2023-11-21T02:25:35;3.50;;;2.90;;
6193;SDS011;3130;41.564;23.280;2023-11-21T02:28:03;4.10;;;2.67;;
6193;SDS011;3130;41.564;23.280;2023-11-21T02:30:32;4.03;;;2.73;;
6193;SDS011;3130;41.564;23.280;2023-11-21T02:32:59;3.60;;;2.57;;
6193;SDS011;3130;41.564;23.280;2023-11-21T02:35:26;7.40;;;2.37;;
6193;SDS011;3130;41.564;23.280;2023-11-21T02:37:53;3.37;;;2.77;;
6193;SDS011;3130;41.564;23.280;2023-11-21T02:40:22;6.13;;;2.90;;
6193;SDS011;3130;41.564;23.280;2023-11-21T02:42:51;3.90;;;3.50;;
6193;SDS011;3130;41.564;23.280;2023-11-21T02:45:19;4.33;;;3.20;;
6193;SDS011;3130;41.564;23.280;2023-11-21T02:47:47;4.37;;;2.77;;
6193;SDS011;3130;41.564;23.280;2023-11-21T02:50:15;4.67;;;2.93;;
6193;SDS011;3130;41.564;23.280;2023-11-21T02:52:44;3.00;;;2.70;;
6193;SDS011;3130;41.564;23.280;2023-11-21T02:55:11;4.00;;;2.77;;
6193;SDS011;3130;41.564;23.280;2023-11-21T02:57:39;3.43;;;2.63;;
6193;SDS011;3130;41.564;23.280;2023-11-21T03:00:07;3.03;;;2.53;;
6193;SDS011;3130;41.564;23.280;2023-11-21T03:02:38;5.37;;;2.80;;
6193;SDS011;3130;41.564;23.280;2023-11-21T03:05:05;3.70;;;3.00;;
6193;SDS011;3130;41.564;23.280;2023-11-21T03:07:34;4.13;;;2.97;;
6193;SDS011;3130;41.564;23.280;2023-11-21T03:10:01;4.17;;;3.07;;
6193;SDS011;3130;41.564;23.280;2023-11-21T03:12:29;4.13;;;2.67;;
6193;SDS011;3130;41.564;23.280;2023-11-21T03:14:58;2.83;;;2.60;;
6193;SDS011;3130;41.564;23.280;2023-11-21T03:17:27;2.97;;;2.40;;
6193;SDS011;3130;41.564;23.280;2023-11-21T03:19:54;3.20;;;2.50;;
6193;SDS011;3130;41.564;23.280;2023-11-21T03:22:22;3.40;;;2.60;;
6193;SDS011;3130;41.564;23.280;2023-11-21T03:24:49;3.53;;;2.40;;
6193;SDS011;3130;41.564;23.280;2023-11-21T03:27:16;3.77;;;3.33;;
6193;SDS011;3130;41.564;23.280;2023-11-21T03:29:44;3.50;;;3.17;;
6193;SDS011;3130;41.564;23.280;2023-11-21T03:32:13;3.33;;;3.03;;
6193;SDS011;3130;41.564;23.280;2023-11-21T03:34:53;4.57;;;3.70;;
6193;SDS011;3130;41.564;23.280;2023-11-21T03:37:20;5.07;;;2.70;;
6193;SDS011;3130;41.564;23.280;2023-11-21T03:39:47;4.07;;;3.10;;
6193;SDS011;3130;41.564;23.280;2023-11-21T03:42:15;4.37;;;3.10;;
6193;SDS011;3130;41.564;23.280;2023-11-21T03:44:42;3.60;;;3.20;;
6193;SDS011;3130;41.564;23.280;2023-11-21T03:47:09;3.77;;;3.37;;
6193;SDS011;3130;41.564;23.280;2023-11-21T03:49:38;3.70;;;2.90;;
6193;SDS011;3130;41.564;23.280;2023-11-21T03:52:05;3.83;;;2.70;;
6193;SDS011;3130;41.564;23.280;2023-11-21T03:54:34;4.63;;;3.43;;
6193;SDS011;3130;41.564;23.280;2023-11-21T03:57:01;3.27;;;2.97;;
6193;SDS011;3130;41.564;23.280;2023-11-21T03:59:29;4.37;;;2.97;;
6193;SDS011;3130;41.564;23.280;2023-11-21T04:01:56;3.97;;;3.23;;
6193;SDS011;3130;41.564;23.280;2023-11-21T04:04:23;5.03;;;3.20;;
6193;SDS011;3130;41.564;23.280;2023-11-21T04:06:52;4.83;;;2.90;;
6193;SDS011;3130;41.564;23.280;2023-11-21T04:09:19;5.00;;;3.10;;
6193;SDS011;3130;41.564;23.280;2023-11-21T04:11:50;2.73;;;2.50;;
6193;SDS011;3130;41.564;23.280;2023-11-21T04:14:17;4.37;;;3.30;;
6193;SDS011;3130;41.564;23.280;2023-11-21T04:16:44;4.00;;;3.07;;
6193;SDS011;3130;41.564;23.280;2023-11-21T04:19:11;3.57;;;2.93;;
6193;SDS011;3130;41.564;23.280;2023-11-21T04:21:39;4.63;;;3.70;;
6193;SDS011;3130;41.564;23.280;2023-11-21T04:24:08;5.00;;;4.13;;
6193;SDS011;3130;41.564;23.280;2023-11-21T04:26:36;7.57;;;5.60;;
6193;SDS011;3130;41.564;23.280;2023-11-21T04:29:03;7.77;;;5.90;;
6193;SDS011;3130;41.564;23.280;2023-11-21T04:31:31;6.53;;;4.60;;
6193;SDS011;3130;41.564;23.280;2023-11-21T04:33:58;7.60;;;5.00;;
6193;SDS011;3130;41.564;23.280;2023-11-21T04:36:25;5.87;;;4.23;;
6193;SDS011;3130;41.564;23.280;2023-11-21T04:38:52;6.90;;;2.87;;
6193;SDS011;3130;41.564;23.280;2023-11-21T04:41:21;5.90;;;4.03;;
6193;SDS011;3130;41.564;23.280;2023-11-21T04:43:48;6.37;;;4.53;;
6193;SDS011;3130;41.564;23.280;2023-11-21T04:46:15;7.07;;;3.73;;
6193;SDS011;3130;41.564;23.280;2023-11-21T04:48:42;4.20;;;3.27;;
6193;SDS011;3130;41.564;23.280;2023-11-21T04:51:09;7.53;;;4.63;;
6193;SDS011;3130;41.564;23.280;2023-11-21T04:53:38;5.53;;;4.17;;
6193;SDS011;3130;41.564;23.280;2023-11-21T04:56:05;4.53;;;3.63;;
6193;SDS011;3130;41.564;23.280;2023-11-21T04:58:34;11.20;;;4.60;;
6193;SDS011;3130;41.564;23.280;2023-11-21T05:01:02;4.57;;;3.93;;
6193;SDS011;3130;41.564;23.280;2023-11-21T05:03:29;5.80;;;4.70;;
6193;SDS011;3130;41.564;23.280;2023-11-21T05:05:56;9.47;;;5.47;;
6193;SDS011;3130;41.564;23.280;2023-11-21T05:08:25;6.30;;;4.73;;
6193;SDS011;3130;41.564;23.280;2023-11-21T05:10:52;7.73;;;4.43;;
6193;SDS011;3130;41.564;23.280;2023-11-21T05:13:20;7.80;;;4.87;;
6193;SDS011;3130;41.564;23.280;2023-11-21T05:15:49;7.37;;;5.83;;
6193;SDS011;3130;41.564;23.280;2023-11-21T05:18:16;7.87;;;5.63;;
6193;SDS011;3130;41.564;23.280;2023-11-21T05:20:43;17.67;;;8.90;;
6193;SDS011;3130;41.564;23.280;2023-11-21T05:23:11;13.33;;;9.10;;
6193;SDS011;3130;41.564;23.280;2023-11-21T05:25:38;13.87;;;10.37;;
6193;SDS011;3130;41.564;23.280;2023-11-21T05:28:06;15.90;;;9.27;;
6193;SDS011;3130;41.564;23.280;2023-11-21T05:30:33;15.47;;;9.93;;
6193;SDS011;3130;41.564;23.280;2023-11-21T05:33:02;12.93;;;8.23;;
6193;SDS011;3130;41.564;23.280;2023-11-21T05:35:29;12.93;;;7.33;;
6193;SDS011;3130;41.564;23.280;2023-11-21T05:37:56;18.10;;;8.60;;
6193;SDS011;3130;41.564;23.280;2023-11-21T05:40:23;17.33;;;8.50;;
6193;SDS011;3130;41.564;23.280;2023-11-21T05:42:53;9.20;;;6.53;;
6193;SDS011;3130;41.564;23.280;2023-11-21T05:45:21;7.10;;;4.60;;
6193;SDS011;3130;41.564;23.280;2023-11-21T05:47:48;7.77;;;4.07;;
6193;SDS011;3130;41.564;23.280;2023-11-21T05:50:17;10.13;;;5.43;;
6193;SDS011;3130;41.564;23.280;2023-11-21T05:52:44;6.93;;;4.47;;
6193;SDS011;3130;41.564;23.280;2023-11-21T05:55:12;6.00;;;5.10;;
6193;SDS011;3130;41.564;23.280;2023-11-21T05:57:41;7.20;;;4.13;;
6193;SDS011;3130;41.564;23.280;2023-11-21T06:00:10;7.27;;;4.43;;
6193;SDS011;3130;41.564;23.280;2023-11-21T06:02:43;7.27;;;4.70;;
6193;SDS011;3130;41.564;23.280;2023-11-21T06:05:11;8.30;;;5.17;;
6193;SDS011;3130;41.564;23.280;2023-11-21T06:07:40;5.97;;;5.17;;
6193;SDS011;3130;41.564;23.280;2023-11-21T06:10:07;7.23;;;4.93;;
6193;SDS011;3130;41.564;23.280;2023-11-21T06:12:36;6.27;;;4.80;;
6193;SDS011;3130;41.564;23.280;2023-11-21T06:15:03;8.63;;;5.23;;
6193;SDS011;3130;41.564;23.280;2023-11-21T06:17:33;7.73;;;5.30;;
6193;SDS011;3130;41.564;23.280;2023-11-21T06:20:02;9.67;;;6.07;;
6193;SDS011;3130;41.564;23.280;2023-11-21T06:22:34;12.23;;;6.67;;
6193;SDS011;3130;41.564;23.280;2023-11-21T06:25:03;7.10;;;5.77;;
6193;SDS011;3130;41.564;23.280;2023-11-21T06:27:31;9.93;;;7.00;;
6193;SDS011;3130;41.564;23.280;2023-11-21T06:29:59;13.27;;;7.37;;
6193;SDS011;3130;41.564;23.280;2023-11-21T06:32:26;9.13;;;7.17;;
6193;SDS011;3130;41.564;23.280;2023-11-21T06:34:54;8.53;;;7.63;;
6193;SDS011;3130;41.564;23.280;2023-11-21T06:37:24;17.57;;;7.97;;
6193;SDS011;3130;41.564;23.280;2023-11-21T06:39:51;11.60;;;9.57;;
6193;SDS011;3130;41.564;23.280;2023-11-21T06:42:20;13.87;;;10.77;;
6193;SDS011;3130;41.564;23.280;2023-11-21T06:44:47;25.93;;;16.17;;
6193;SDS011;3130;41.564;23.280;2023-11-21T06:47:16;22.87;;;16.20;;
6193;SDS011;3130;41.564;23.280;2023-11-21T06:49:45;19.83;;;13.30;;
6193;SDS011;3130;41.564;23.280;2023-11-21T06:52:14;22.33;;;17.40;;
6193;SDS011;3130;41.564;23.280;2023-11-21T06:54:41;35.37;;;25.13;;
6193;SDS011;3130;41.564;23.280;2023-11-21T06:57:08;40.93;;;27.00;;
6193;SDS011;3130;41.564;23.280;2023-11-21T06:59:37;35.17;;;22.63;;
6193;SDS011;3130;41.564;23.280;2023-11-21T07:02:04;42.80;;;30.50;;
6193;SDS011;3130;41.564;23.280;2023-11-21T07:04:32;48.07;;;29.23;;
6193;SDS011;3130;41.564;23.280;2023-11-21T07:06:59;50.80;;;37.43;;
6193;SDS011;3130;41.564;23.280;2023-11-21T07:09:28;53.77;;;37.47;;
6193;SDS011;3130;41.564;23.280;2023-11-21T07:11:56;52.13;;;33.10;;
6193;SDS011;3130;41.564;23.280;2023-11-21T07:14:23;57.10;;;31.87;;
6193;SDS011;3130;41.564;23.280;2023-11-21T07:16:52;47.47;;;27.83;;
6193;SDS011;3130;41.564;23.280;2023-11-21T07:19:19;41.03;;;27.43;;
6193;SDS011;3130;41.564;23.280;2023-11-21T07:21:47;40.67;;;25.40;;
6193;SDS011;3130;41.564;23.280;2023-11-21T07:24:16;36.47;;;22.70;;
6193;SDS011;3130;41.564;23.280;2023-11-21T07:26:43;46.03;;;25.90;;
6193;SDS011;3130;41.564;23.280;2023-11-21T07:29:10;37.63;;;22.93;;
6193;SDS011;3130;41.564;23.280;2023-11-21T07:31:38;42.03;;;23.63;;
6193;SDS011;3130;41.564;23.280;2023-11-21T07:34:07;33.63;;;20.67;;
6193;SDS011;3130;41.564;23.280;2023-11-21T07:36:35;32.93;;;17.77;;
6193;SDS011;3130;41.564;23.280;2023-11-21T07:39:02;24.13;;;16.00;;
6193;SDS011;3130;41.564;23.280;2023-11-21T07:41:31;23.03;;;15.57;;
6193;SDS011;3130;41.564;23.280;2023-11-21T07:43:59;18.60;;;11.37;;
6193;SDS011;3130;41.564;23.280;2023-11-21T07:46:26;18.80;;;12.60;;
6193;SDS011;3130;41.564;23.280;2023-11-21T07:48:53;20.60;;;13.17;;
6193;SDS011;3130;41.564;23.280;2023-11-21T07:51:22;23.27;;;16.37;;
6193;SDS011;3130;41.564;23.280;2023-11-21T07:53:50;18.30;;;12.83;;
6193;SDS011;3130;41.564;23.280;2023-11-21T07:56:17;17.63;;;12.10;;
6193;SDS011;3130;41.564;23.280;2023-11-21T07:58:44;15.87;;;11.77;;
6193;SDS011;3130;41.564;23.280;2023-11-21T08:01:11;17.10;;;12.27;;
6193;SDS011;3130;41.564;23.280;2023-11-21T08:03:38;16.63;;;11.47;;
6193;SDS011;3130;41.564;23.280;2023-11-21T08:06:06;17.60;;;11.50;;
6193;SDS011;3130;41.564;23.280;2023-11-21T08:08:35;16.60;;;11.60;;
6193;SDS011;3130;41.564;23.280;2023-11-21T08:11:02;20.27;;;14.87;;
6193;SDS011;3130;41.564;23.280;2023-11-21T08:13:30;20.37;;;13.93;;
6193;SDS011;3130;41.564;23.280;2023-11-21T08:15:57;20.43;;;16.03;;
6193;SDS011;3130;41.564;23.280;2023-11-21T08:18:28;22.03;;;14.87;;
6193;SDS011;3130;41.564;23.280;2023-11-21T08:20:56;20.50;;;14.27;;
6193;SDS011;3130;41.564;23.280;2023-11-21T08:23:23;20.57;;;14.43;;
6193;SDS011;3130;41.564;23.280;2023-11-21T08:25:52;20.17;;;14.00;;
6193;SDS011;3130;41.564;23.280;2023-11-21T08:28:19;21.47;;;12.47;;
6193;SDS011;3130;41.564;23.280;2023-11-21T08:30:47;20.37;;;12.27;;
6193;SDS011;3130;41.564;23.280;2023-11-21T08:33:14;17.70;;;11.17;;
6193;SDS011;3130;41.564;23.280;2023-11-21T08:35:41;17.33;;;12.27;;
6193;SDS011;3130;41.564;23.280;2023-11-21T08:38:08;18.80;;;12.10;;
6193;SDS011;3130;41.564;23.280;2023-11-21T08:40:37;19.60;;;13.60;;
6193;SDS011;3130;41.564;23.280;2023-11-21T08:43:06;26.63;;;14.43;;
6193;SDS011;3130;41.564;23.280;2023-11-21T08:45:33;20.70;;;14.13;;
6193;SDS011;3130;41.564;23.280;2023-11-21T08:48:00;24.00;;;15.13;;
6193;SDS011;3130;41.564;23.280;2023-11-21T08:50:27;24.63;;;15.10;;
6193;SDS011;3130;41.564;23.280;2023-11-21T08:52:55;27.17;;;19.40;;
6193;SDS011;3130;41.564;23.280;2023-11-21T08:55:22;25.97;;;16.60;;
6193;SDS011;3130;41.564;23.280;2023-11-21T08:57:49;14.63;;;10.27;;
6193;SDS011;3130;41.564;23.280;2023-11-21T09:00:18;12.53;;;8.17;;
6193;SDS011;3130;41.564;23.280;2023-11-21T09:02:45;17.10;;;9.27;;
6193;SDS011;3130;41.564;23.280;2023-11-21T09:05:13;12.30;;;8.47;;
6193;SDS011;3130;41.564;23.280;2023-11-21T09:07:41;7.57;;;5.63;;
6193;SDS011;3130;41.564;23.280;2023-11-21T09:10:08;9.27;;;6.27;;
6193;SDS011;3130;41.564;23.280;2023-11-21T09:12:36;8.00;;;6.40;;
6193;SDS011;3130;41.564;23.280;2023-11-21T09:15:04;8.80;;;6.03;;
6193;SDS011;3130;41.564;23.280;2023-11-21T09:17:34;8.40;;;6.00;;
6193;SDS011;3130;41.564;23.280;2023-11-21T09:20:01;22.53;;;12.17;;
6193;SDS011;3130;41.564;23.280;2023-11-21T09:22:31;8.57;;;6.70;;
6193;SDS011;3130;41.564;23.280;2023-11-21T09:24:58;9.93;;;6.87;;
6193;SDS011;3130;41.564;23.280;2023-11-21T09:27:26;7.67;;;5.50;;
6193;SDS011;3130;41.564;23.280;2023-11-21T09:29:54;10.33;;;5.03;;
6193;SDS011;3130;41.564;23.280;2023-11-21T09:32:23;5.33;;;3.73;;
6193;SDS011;3130;41.564;23.280;2023-11-21T09:34:52;6.90;;;4.23;;
6193;SDS011;3130;41.564;23.280;2023-11-21T09:37:20;4.50;;;4.03;;
6193;SDS011;3130;41.564;23.280;2023-11-21T09:39:47;6.40;;;3.93;;
6193;SDS011;3130;41.564;23.280;2023-11-21T09:42:17;7.27;;;4.33;;
6193;SDS011;3130;41.564;23.280;2023-11-21T09:44:51;3.97;;;3.37;;
6193;SDS011;3130;41.564;23.280;2023-11-21T09:47:24;4.43;;;3.60;;
6193;SDS011;3130;41.564;23.280;2023-11-21T09:49:53;4.97;;;3.80;;
6193;SDS011;3130;41.564;23.280;2023-11-21T09:52:24;8.17;;;4.23;;
6193;SDS011;3130;41.564;23.280;2023-11-21T09:54:53;9.40;;;5.53;;
6193;SDS011;3130;41.564;23.280;2023-11-21T09:57:22;7.67;;;4.50;;
6193;SDS011;3130;41.564;23.280;2023-11-21T09:59:50;6.33;;;4.07;;
6193;SDS011;3130;41.564;23.280;2023-11-21T10:02:24;6.57;;;4.03;;
6193;SDS011;3130;41.564;23.280;2023-11-21T10:04:55;7.03;;;4.60;;
6193;SDS011;3130;41.564;23.280;2023-11-21T10:07:24;6.23;;;4.73;;
6193;SDS011;3130;41.564;23.280;2023-11-21T10:09:53;5.63;;;4.00;;
6193;SDS011;3130;41.564;23.280;2023-11-21T10:12:21;7.80;;;4.57;;
6193;SDS011;3130;41.564;23.280;2023-11-21T10:14:51;8.33;;;5.00;;
6193;SDS011;3130;41.564;23.280;2023-11-21T10:17:21;10.90;;;6.17;;
6193;SDS011;3130;41.564;23.280;2023-11-21T10:19:55;6.90;;;5.73;;
6193;SDS011;3130;41.564;23.280;2023-11-21T10:22:24;7.90;;;5.13;;
6193;SDS011;3130;41.564;23.280;2023-11-21T10:24:51;6.67;;;4.93;;
6193;SDS011;3130;41.564;23.280;2023-11-21T10:27:18;8.70;;;5.53;;
6193;SDS011;3130;41.564;23.280;2023-11-21T10:29:46;7.37;;;4.77;;
6193;SDS011;3130;41.564;23.280;2023-11-21T10:32:13;7.00;;;5.80;;
6193;SDS011;3130;41.564;23.280;2023-11-21T10:34:40;9.13;;;5.87;;
6193;SDS011;3130;41.564;23.280;2023-11-21T10:37:12;7.43;;;5.33;;
6193;SDS011;3130;41.564;23.280;2023-11-21T10:39:40;12.30;;;7.13;;
6193;SDS011;3130;41.564;23.280;2023-11-21T10:42:09;10.02;;;7.57;;
6193;SDS011;3130;41.564;23.280;2023-11-21T10:44:36;11.50;;;7.43;;
6193;SDS011;3130;41.564;23.280;2023-11-21T10:47:03;12.10;;;7.50;;
6193;SDS011;3130;41.564;23.280;2023-11-21T10:49:31;9.73;;;7.23;;
6193;SDS011;3130;41.564;23.280;2023-11-21T10:51:59;11.57;;;6.93;;
6193;SDS011;3130;41.564;23.280;2023-11-21T10:54:28;12.37;;;8.67;;
6193;SDS011;3130;41.564;23.280;2023-11-21T10:56:56;12.30;;;8.50;;
6193;SDS011;3130;41.564;23.280;2023-11-21T10:59:25;11.40;;;8.90;;
6193;SDS011;3130;41.564;23.280;2023-11-21T11:01:57;14.47;;;7.73;;
6193;SDS011;3130;41.564;23.280;2023-11-21T11:04:27;15.30;;;8.30;;
6193;SDS011;3130;41.564;23.280;2023-11-21T11:06:55;15.13;;;9.97;;
6193;SDS011;3130;41.564;23.280;2023-11-21T11:09:24;12.70;;;9.23;;
6193;SDS011;3130;41.564;23.280;2023-11-21T11:11:54;14.50;;;8.90;;
6193;SDS011;3130;41.564;23.280;2023-11-21T11:14:21;13.40;;;9.30;;
6193;SDS011;3130;41.564;23.280;2023-11-21T11:16:52;14.37;;;9.37;;
6193;SDS011;3130;41.564;23.280;2023-11-21T11:19:20;11.93;;;8.90;;
6193;SDS011;3130;41.564;23.280;2023-11-21T11:21:50;12.57;;;9.47;;
6193;SDS011;3130;41.564;23.280;2023-11-21T11:24:29;11.40;;;8.40;;
6193;SDS011;3130;41.564;23.280;2023-11-21T11:27:10;11.60;;;8.33;;
6193;SDS011;3130;41.564;23.280;2023-11-21T11:29:49;13.50;;;9.40;;
6193;SDS011;3130;41.564;23.280;2023-11-21T11:32:27;11.63;;;9.13;;
6193;SDS011;3130;41.564;23.280;2023-11-21T11:35:09;11.30;;;8.20;;
6193;SDS011;3130;41.564;23.280;2023-11-21T11:37:43;12.53;;;8.87;;
6193;SDS011;3130;41.564;23.280;2023-11-21T11:40:11;12.53;;;9.27;;
6193;SDS011;3130;41.564;23.280;2023-11-21T11:42:41;13.73;;;10.13;;
6193;SDS011;3130;41.564;23.280;2023-11-21T11:45:23;13.43;;;9.63;;
6193;SDS011;3130;41.564;23.280;2023-11-21T11:48:00;11.77;;;8.53;;
6193;SDS011;3130;41.564;23.280;2023-11-21T11:50:28;10.77;;;7.93;;
6193;SDS011;3130;41.564;23.280;2023-11-21T11:53:11;12.43;;;7.97;;
6193;SDS011;3130;41.564;23.280;2023-11-21T11:55:39;10.73;;;8.00;;
6193;SDS011;3130;41.564;23.280;2023-11-21T11:58:08;9.60;;;7.80;;
6193;SDS011;3130;41.564;23.280;2023-11-21T12:00:36;12.10;;;9.60;;
6193;SDS011;3130;41.564;23.280;2023-11-21T12:03:05;15.77;;;9.60;;
6193;SDS011;3130;41.564;23.280;2023-11-21T12:05:34;17.00;;;9.83;;
6193;SDS011;3130;41.564;23.280;2023-11-21T12:08:04;15.57;;;11.00;;
6193;SDS011;3130;41.564;23.280;2023-11-21T12:10:33;156.33;;;59.53;;
6193;SDS011;3130;41.564;23.280;2023-11-21T12:13:02;38.93;;;21.63;;
6193;SDS011;3130;41.564;23.280;2023-11-21T12:15:34;13.63;;;10.20;;
6193;SDS011;3130;41.564;23.280;2023-11-21T12:18:01;12.03;;;7.53;;
6193;SDS011;3130;41.564;23.280;2023-11-21T12:20:29;12.90;;;8.30;;
6193;SDS011;3130;41.564;23.280;2023-11-21T12:22:57;8.47;;;6.47;;
6193;SDS011;3130;41.564;23.280;2023-11-21T12:25:26;9.67;;;6.97;;
6193;SDS011;3130;41.564;23.280;2023-11-21T12:27:54;12.20;;;7.00;;
6193;SDS011;3130;41.564;23.280;2023-11-21T12:30:23;13.37;;;6.30;;
6193;SDS011;3130;41.564;23.280;2023-11-21T12:32:55;10.40;;;7.00;;
6193;SDS011;3130;41.564;23.280;2023-11-21T12:35:24;10.47;;;6.60;;
6193;SDS011;3130;41.564;23.280;2023-11-21T12:37:53;25.27;;;12.67;;
6193;SDS011;3130;41.564;23.280;2023-11-21T12:40:22;26.17;;;12.67;;
6193;SDS011;3130;41.564;23.280;2023-11-21T12:42:51;15.13;;;9.20;;
6193;SDS011;3130;41.564;23.280;2023-11-21T12:45:20;10.87;;;7.60;;
6193;SDS011;3130;41.564;23.280;2023-11-21T12:47:51;28.33;;;18.93;;
6193;SDS011;3130;41.564;23.280;2023-11-21T12:50:22;13.33;;;10.43;;
6193;SDS011;3130;41.564;23.280;2023-11-21T12:52:54;11.53;;;7.90;;
6193;SDS011;3130;41.564;23.280;2023-11-21T12:55:24;12.80;;;8.60;;
6193;SDS011;3130;41.564;23.280;2023-11-21T12:57:52;13.97;;;9.37;;
6193;SDS011;3130;41.564;23.280;2023-11-21T13:00:27;10.90;;;8.57;;
6193;SDS011;3130;41.564;23.280;2023-11-21T13:02:59;12.30;;;8.63;;
6193;SDS011;3130;41.564;23.280;2023-11-21T13:05:28;12.50;;;8.57;;
6193;SDS011;3130;41.564;23.280;2023-11-21T13:07:56;14.37;;;9.30;;
6193;SDS011;3130;41.564;23.280;2023-11-21T13:10:28;13.37;;;10.43;;
6193;SDS011;3130;41.564;23.280;2023-11-21T13:12:57;10.77;;;9.20;;
6193;SDS011;3130;41.564;23.280;2023-11-21T13:15:25;15.37;;;11.10;;
6193;SDS011;3130;41.564;23.280;2023-11-21T13:17:52;15.77;;;11.30;;
6193;SDS011;3130;41.564;23.280;2023-11-21T13:20:21;14.67;;;11.43;;
6193;SDS011;3130;41.564;23.280;2023-11-21T13:22:51;16.23;;;10.80;;
6193;SDS011;3130;41.564;23.280;2023-11-21T13:25:22;15.73;;;12.10;;
6193;SDS011;3130;41.564;23.280;2023-11-21T13:27:52;16.20;;;11.27;;
6193;SDS011;3130;41.564;23.280;2023-11-21T13:30:20;17.37;;;12.37;;
6193;SDS011;3130;41.564;23.280;2023-11-21T13:32:52;15.93;;;11.97;;
6193;SDS011;3130;41.564;23.280;2023-11-21T13:35:22;23.37;;;13.00;;
6193;SDS011;3130;41.564;23.280;2023-11-21T13:38:02;17.63;;;12.03;;
6193;SDS011;3130;41.564;23.280;2023-11-21T13:40:31;17.90;;;11.90;;
6193;SDS011;3130;41.564;23.280;2023-11-21T13:43:05;14.77;;;10.67;;
6193;SDS011;3130;41.564;23.280;2023-11-21T13:45:35;13.40;;;10.73;;
6193;SDS011;3130;41.564;23.280;2023-11-21T13:48:02;14.13;;;10.10;;
6193;SDS011;3130;41.564;23.280;2023-11-21T13:50:32;14.43;;;11.30;;
6193;SDS011;3130;41.564;23.280;2023-11-21T13:53:02;14.33;;;10.27;;
6193;SDS011;3130;41.564;23.280;2023-11-21T13:55:36;13.33;;;10.33;;
6193;SDS011;3130;41.564;23.280;2023-11-21T13:58:05;14.10;;;10.47;;
6193;SDS011;3130;41.564;23.280;2023-11-21T14:00:37;17.73;;;12.73;;
6193;SDS011;3130;41.564;23.280;2023-11-21T14:03:10;12.67;;;8.20;;
6193;SDS011;3130;41.564;23.280;2023-11-21T14:05:45;13.87;;;9.73;;
6193;SDS011;3130;41.564;23.280;2023-11-21T14:08:18;18.80;;;13.73;;
6193;SDS011;3130;41.564;23.280;2023-11-21T14:10:46;19.27;;;13.30;;
6193;SDS011;3130;41.564;23.280;2023-11-21T14:13:20;23.73;;;15.80;;
6193;SDS011;3130;41.564;23.280;2023-11-21T14:15:48;19.90;;;14.40;;
6193;SDS011;3130;41.564;23.280;2023-11-21T14:18:22;25.07;;;17.90;;
6193;SDS011;3130;41.564;23.280;2023-11-21T14:20:58;27.83;;;18.90;;
6193;SDS011;3130;41.564;23.280;2023-11-21T14:23:26;26.83;;;16.60;;
6193;SDS011;3130;41.564;23.280;2023-11-21T14:25:55;28.70;;;18.30;;
6193;SDS011;3130;41.564;23.280;2023-11-21T14:28:23;25.47;;;17.50;;
6193;SDS011;3130;41.564;23.280;2023-11-21T14:30:50;26.57;;;19.33;;
6193;SDS011;3130;41.564;23.280;2023-11-21T14:33:17;34.87;;;21.57;;
6193;SDS011;3130;41.564;23.280;2023-11-21T14:35:45;28.80;;;18.33;;
6193;SDS011;3130;41.564;23.280;2023-11-21T14:38:12;26.10;;;16.20;;
6193;SDS011;3130;41.564;23.280;2023-11-21T14:40:41;23.07;;;17.20;;
6193;SDS011;3130;41.564;23.280;2023-11-21T14:43:08;16.93;;;14.30;;
6193;SDS011;3130;41.564;23.280;2023-11-21T14:45:36;22.97;;;15.50;;
6193;SDS011;3130;41.564;23.280;2023-11-21T14:48:03;19.70;;;13.60;;
6193;SDS011;3130;41.564;23.280;2023-11-21T14:50:41;16.60;;;12.07;;
6193;SDS011;3130;41.564;23.280;2023-11-21T14:53:36;18.20;;;14.10;;
6193;SDS011;3130;41.564;23.280;2023-11-21T14:56:20;27.43;;;12.80;;
6193;SDS011;3130;41.564;23.280;2023-11-21T14:58:52;19.50;;;12.90;;